Terminal Aerodrome Forecast
Issued by NWS Wilmington, OH

Current Version | Previous Version | Graphics & Text | Print | Product List | Glossary On
Versions: 1 2 3 4 5 6 7 8 9 10 11 12 13 14 15 16
000
FTUS41 KILN 220200 AAA
TAFILN
TAF AMD
KILN 220213Z 2202/2224 22008KT P6SM BKN150
     FM220300 27010KT P6SM VCSH SCT050 OVC100
     FM220700 26012KT P6SM -SHRA BKN050 OVC100
     FM221200 30013KT P6SM OVC018
     FM221500 32018G26KT P6SM SCT035=

USA.gov is the U.S. government's official web portal to all federal, state and local government web resources and services.